Timeline UpdatesTrip UpdatesNews PostsPvt PostsTravel TipsAdmin PostsConv PostsFollowed PostsChat RequestsBlog PostsPNR Posts

Disclaimer
Search
 
 
Fri Jul 25, 2014 04:30:10 ISTHomeTrainsΣChainsAtlasPNRForumGalleryNewsFAQTripsMembersLoginFeedback
No Recent News for this Train
Other Trains in the News **new
Latest...
From 11.09.2013 to 9.11.2013........19024 Firozpur Janata Express will be terminated at Dadar.
Thu Sep 05, 2013 (07:07PM)
⇐ Return Journey: Train# 19023

19024/Firozpur - Mumbai Central Janta Express

Dec 24 2013 (8:25PM)
Change Departure Station:
Change Arrival Station:
Post a Train Travel TipPost a Train Travel Tip **new
Post a Comment/Question/Picture/VideoPost a Comment/Question/Picture/Video
Inaugural Run
Mon Oct 01, 1956
Pantry/Catering
✕ NO Pantry Car
✓ Catering Avbl
Catering from local vendors
RSA - Rake Sharing
Dedicated Rake.No RSA
Rake/Coach Composition
LOCO<SLR,GS,GS(MST),GS,S-1, S-2, S-3, S-4, S-5, S-6, S-7, S-8,GS,SLR,HCPV=14+1
Loco
TKD WDP-4/4B between FZR-NDLS, GZB WAP5 between NDLS-BCT
News    PNR    Forum    Time-Table    Availability    Fare Chart    Map    Arr/Dep History    Trips    Gallery    ΣChains    X/O    Timeline    
Travel Time: 12h 36m    34 halts    Distance: 567 km    Avg Speed: 45 km/hr
Type: Mail/Express
Zone: WR/Western
Departs @ 07:10
Platform# ???
SMTWTFS
Meghnagar/MGN 
Arrives @ 19:46
Platform# 5
SMTWTFS
Mumbai Dadar Western/DDR 

34 halts. 105 intermediate Stations between Meghnagar and Mumbai Dadar Western

Show ALL intermediate Stations  Show Old Time-Table

#CodeStation NameX/OArrivesAvgDepartsAvgHaltPFDay#KmSpeedElevZoneAddress
1FZRFirozpur Cantt. Junction (5)  -05:10-11-1200.181200mNRFirozpur Cantt 152001, Punjab
2FDKFaridkot (3)  05:34-05:36-2m11-1167.855202mNRFaridkot, Punjab
3KKPKot Kapura Junction (3)  05:50-05:52-2m11-1155.1650mNRKotkapura, Punjab
4GJUTGangsar Jaitu (3)  06:07-06:09-2m11-1138.861207mNRJaitu, Punjab
5GNAGoneana Bhai Jagta (3)X  06:23-06:25-2m11-1124.625206mNRGoniana, Punjab
6BTIBathinda Junction (6)  06:55-07:05-10m21-1112.382208mNRBathinda, Punjab
7MAURMaur  07:31-07:33-2m--1-1076.8101220mNRMaur Mandi, Punjab
8KTKLKotli Kalan  07:39-07:41-2m--1-1066.740219mNRState Highway 12A, Punjab
9MSZMansa  07:54-07:56-2m--1-1058.174222mNRMansa, Punjab
10BLZBudhlada  08:09-08:11-2m--1-1042.071223mNRBudhlada, Punjab
11BRZBareta  08:24-08:26-2m--1-1026.650223mNRBareta, Punjab
12JHLJakhal Junction  08:43-08:45-2m--1-1012.467225mNRJakhal, Haryana
13TUNTohana (2)  08:56-08:58-2m--1-1000.176232mNRTohana, Haryana
14NRWNarwana Junction (4)  09:18-09:20-2m--1-974.770235mNRWay to Narwana, Haryana
15UCAUchanaX  09:33-09:35-2m--1-959.545225mNRDistrict Jind, Haryana
16JINDJind Junction (3)  10:00-10:05-5m--1-940.870222mNR126102., Haryana
17JNAJulana  10:27-10:29-2m--1-915.152226mNRJulana, Haryana
18ROKRohtak Junction (3)  11:05-11:08-3m--1-883.763220mNRRohtak, Haryana
19ISMIsmaila Haryana  11:26-11:28-2m--1-864.953221mNRNational Highway 10, Haryana
20SPZSampla  11:32-11:34-2m--1-861.372222mNRSampla, Haryana
21BGZBahadurgarh  11:49-11:51-2m--1-843.462220mNRBahadurgarh, Haryana
22NNONangloi  12:03-12:05-2m--1-830.948219mNRJJ Colony No 1, Delhi NCT
23MGLPMangolpuriX  12:09-12:11-2m--1-827.726217mNROutter Ring Rd, Delhi NCT
24SSBShakur Basti  12:21-12:23-2m--1-823.532216mNRPitampura, Delhi NCT
25DKZDelhi KishanGanj (2)  12:36-12:38-2m--1-816.59220mNRSarai Rohilla, Delhi NCT
26NDLSNew Delhi (16)X13:05-13:35-30m71-812.632215mNRNew Delhi, Delhi NCT
27NZMDelhi Hazrat Nizamuddin (7)XO  13:49-13:51-2m11-805.237209mNRNizamuddin East/Sarai KaleKhan Bus Terminal, Delhi NCT
28OKAOkhla (4)X  13:57-13:59-2m--1-801.652221mNRIshwar Nagar Mathura Road, Delhi NCT
29TKDTuglakabad (4)XO  14:06-14:08-2m11-795.644213mNRNear Tughlakabad Metro Station, Delhi NCT
30FDBFaridabad (4)  14:23-14:25-2m31-784.527206mNRold Faridabad, Haryana
31BVHBallabgarh (5)O  14:43-14:45-2m--1-776.439203mNRFaridabad, Haryana
32PWLPalwal (8)  15:18-15:20-2m--1-755.285200mNRPalwal, Haryana
33KSVKosi Kalan (3)XO  15:50-15:52-2m21-712.756189mNCRKosi Kalan, Uttar Pradesh
34CHJChata (4)X  16:03-16:05-2m--1-702.534185mNCRChhata, Uttar Pradesh
35MTJMathura Junction (10)  17:00-17:05-5m31-671.380179mNCRMathura, Uttar Pradesh
36BTEBharatpur Junction (5)O  17:30-17:35-5m31-637.872174mWCRBharatpur, Rajasthan
37BXNBayana Junction (3)X  18:10-18:15-5m--1-595.891198mWCRBayana, Rajasthan
38FSPFateh SinghpuraX  18:28-18:30-2m--1-576.144223mWCRState Highway 1, Rajasthan
39HANHindaun City (2)  18:48-18:50-2m--1-562.961230mWCRKarauli, Rajasthan
40SMBJShri Mahabirji (3)XO  19:00-19:02-2m--1-552.743240mWCRKarauli, Rajasthan
41GGCGangapur City (3)  19:50-19:55-5m21-518.664270mWCRGangapur, Rajasthan
42NNWNarayanpur Tatwara (2)OT20:11-20:12-1m--1-501.736256mWCRSawai Madhopur, Rajasthan
43MLZMalarna  20:40-20:42-2m21-484.979236mWCRSawai Madhopur, Rajasthan
44SWMSawai Madhopur Junction (4)X  21:05-21:10-5m21-454.787266mWCRSawai Madhopur, Rajasthan
45IDGIndargarh Sumerganj Mandi (2)  21:35-21:37-2m--1-418.566247mWCRIndargarh, Rajasthan
46LKELakheri (3)X  21:47-21:49-2m--1-407.545228mWCRBundi, Rajasthan
47KOTAKota Junction (5)  23:10-23:20-10m21-346.968256mWCRKota, Rajasthan
48RMARamganj Mandi Junction (3)X  00:23-00:25-2m--2-275.657358mWCRRamganj Mandi, Rajasthan
49JHWJhalawar Road (3)XO  00:38-00:40-2m--2-263.330361mWCRJhalawar City, Rajasthan
50BWMBhawani Mandi (3)X  01:13-01:15-2m--2-246.874384mWCRBhawani Mandi, Madhya Pradesh
51SGZShamgarh (3)X  01:42-01:47-5m--2-213.350463mWCRMandsaur, Madhya Pradesh
52SVASuwasra (2)O  02:03-02:05-2m--2-199.940450mWCRSuwasra, Madhya Pradesh
53CMUChau Mahla (3)  02:28-02:30-2m12-184.520426mWCRJhalawar, Rajasthan
54VMAVikramgarh Alot (2)X  03:36-03:38-2m12-162.741443mWCRKota Division, Madhya Pradesh
55MEPMahidpur Road  04:13-04:15-2m--2-138.841493mWCRGogapur, Madhya Pradesh
56NADNagda Junction (4)X  04:40-04:45-5m--2-121.775468mWRNagda, Madhya Pradesh
57KUHKhachrod (2)X  04:56-04:58-2m--2-107.935497mWRUjjain, Madhya Pradesh
58RTMRatlam Junction (7)X  05:45-06:00-15m42-80.377495mWRRatlam, Madhya Pradesh
59BMIBamnia (2)X  06:35-06:37-2m--2-35.575392mWRBamnia, Madhya Pradesh
60THDRThandla Road (2)  06:59-07:01-2m--2-8.068317mWRJhabua, Madhya Pradesh
61MGN»Meghnagar (3)»  07:08-07:10-2m--20.080317mWRJhabua, Madhya Pradesh
62DHDDahod (3)X  07:35-07:40-5m--233.173313mWRDahod, Gujarat
63LMKLimkheda  08:07-08:09-2m--266.168205mWRLimkheda, Gujarat
64PPDPiplod Junction  08:16-08:18-2m--274.089209mWRPiplod, Gujarat
65SATSant Road (2)X  08:26-08:28-2m2285.920169mWROrwara, Gujarat
66GDAGodhra Junction (3)X  09:29-09:34-5m12106.274122mWRGodhra, Gujarat
67DRLDerol  09:53-09:55-2m--2129.87981mWRKalol, Gujarat
68SMLASamlaya Junction (3)  10:13-10:15-2m--2153.55367mWRVadodara, Gujarat
69BRCVadodara Junction (7)X10:45-10:55-10m12180.18936mWRVadodara 390005, Gujarat
70MYGMiyagam Karjan (2)  11:15-11:17-2m22210.08329mWRKarjan, Gujarat
71PLJPalej (4)  11:28-11:30-2m--2225.28029mWRPalej, Gujarat
72NIUNabipur (3)XT11:40-11:42-2m--2238.65224mWRNabipur, Gujarat
73BHBharuch Junction (5)  11:56-11:58-2m22250.66219mWRBharuch, Gujarat
74AKVAnkleshwar Junction (4)O  12:07-12:09-2m22260.04819mWRAnkleshwar, Gujarat
75PAOPanoli (3)T12:22-12:24-2m--2270.36229mWRPanoli, Gujarat
76KSBKosamba Junction (3)XO  12:32-12:34-2m22278.55830mWRKosamba, Gujarat
77KIMKim (2)T12:42-12:44-2m22286.33118mWRNH 8, Gujarat
78STSurat (4)X  13:30-13:35-5m22309.97119mWRSurat 395001, Gujarat
79MRLMaroli (3)  13:53-13:55-2m22331.14615mWRMaroli, Gujarat
80NVSNavsari (3)  14:06-14:08-2m22339.55514mWRNavsari, Gujarat
81AMLAmalsad (3)  14:25-14:27-2m22355.13712mWRAmalsad, Gujarat
82BIMBilimora Junction (4)XO  14:36-14:38-2m22360.73611mWRBilimora, Gujarat
83BLValsad (3)X  15:08-15:10-2m32378.64615mWRValsad, Gujarat
84PADPardi (3)XT15:24-15:26-2m--2389.35119mWRValsad, Gujarat
85UVDUdvada (3)T15:33-15:35-2m--2395.35218mWRUdvada, Gujarat
86VAPIVapi (3)XO  15:46-15:48-2m22404.93427mWRVapi, Gujarat
87BLDBhilad (3)XO  16:08-16:10-2m--2416.16933mWRBhilad, Gujarat
88SJNSanjan (3)XO  16:20-16:22-2m--2427.75422mWRSanjan, Gujarat
89UBRUmbargam Road (3)XO  16:28-16:30-2m--2433.14730mWRUmbergaon, Gujarat
90DRDDahanu Road (5)X  16:56-16:58-2m--2453.47412mWRDahanu, Maharashtra
91VGNVangaon (3)XO  17:08-17:10-2m--2465.77111mWRThane, Maharashtra
92BORBoisar (3)XO  17:18-17:20-2m32475.16117mWRBoisar Tel.no-02525-266626, Maharashtra
93PLGPalghar (3)XO  17:31-17:33-2m22486.45719mWRPalghar, Maharashtra
94VRVirar (8)XO  18:06-18:08-2m42517.5526mWRThane, Maharashtra
95BVIMumbai Borivali (8)  18:38-18:40-2m52543.32219mWRMumbai - 400092, Maharashtra
96DDR•Mumbai Dadar Western (6)•  19:46-19:48-2m52567.1166mWRMumbai, Maharashtra
97BCTMumbai Central (9)  20:10--52573.0-3mWRMumbai 400008, Maharashtra
Scroll to Top
Scroll to Bottom